sensor_id;sensor_type;location;lat;lon;timestamp;temperature;humidity
52295;DHT22;38243;53.212;6.574;2023-12-14T00:01:54;16.00;94.50
52295;DHT22;38243;53.212;6.574;2023-12-14T00:04:20;16.00;94.40
52295;DHT22;38243;53.212;6.574;2023-12-14T00:06:45;16.00;94.40
52295;DHT22;38243;53.212;6.574;2023-12-14T00:09:11;15.90;94.30
52295;DHT22;38243;53.212;6.574;2023-12-14T00:11:37;16.00;94.30
52295;DHT22;38243;53.212;6.574;2023-12-14T00:14:03;15.90;94.20
52295;DHT22;38243;53.212;6.574;2023-12-14T00:16:29;15.90;94.30
52295;DHT22;38243;53.212;6.574;2023-12-14T00:18:54;16.00;94.30
52295;DHT22;38243;53.212;6.574;2023-12-14T00:21:20;16.00;94.30
52295;DHT22;38243;53.212;6.574;2023-12-14T00:23:45;15.90;94.20
52295;DHT22;38243;53.212;6.574;2023-12-14T00:26:11;16.00;94.20
52295;DHT22;38243;53.212;6.574;2023-12-14T00:28:37;15.90;94.20
52295;DHT22;38243;53.212;6.574;2023-12-14T00:31:02;15.90;94.10
52295;DHT22;38243;53.212;6.574;2023-12-14T00:33:28;16.00;94.10
52295;DHT22;38243;53.212;6.574;2023-12-14T00:35:53;16.00;94.10
52295;DHT22;38243;53.212;6.574;2023-12-14T00:38:19;15.90;94.10
52295;DHT22;38243;53.212;6.574;2023-12-14T00:40:44;15.90;94.10
52295;DHT22;38243;53.212;6.574;2023-12-14T00:43:10;15.90;94.00
52295;DHT22;38243;53.212;6.574;2023-12-14T00:45:36;15.90;94.00
52295;DHT22;38243;53.212;6.574;2023-12-14T00:48:01;15.90;94.00
52295;DHT22;38243;53.212;6.574;2023-12-14T00:50:27;15.90;94.00
52295;DHT22;38243;53.212;6.574;2023-12-14T00:52:52;16.00;93.80
52295;DHT22;38243;53.212;6.574;2023-12-14T00:55:18;15.90;93.60
52295;DHT22;38243;53.212;6.574;2023-12-14T00:57:44;15.90;93.70
52295;DHT22;38243;53.212;6.574;2023-12-14T01:00:09;15.90;93.70
52295;DHT22;38243;53.212;6.574;2023-12-14T01:02:36;15.90;93.80
52295;DHT22;38243;53.212;6.574;2023-12-14T01:05:01;15.90;93.80
52295;DHT22;38243;53.212;6.574;2023-12-14T01:07:27;15.90;93.80
52295;DHT22;38243;53.212;6.574;2023-12-14T01:09:52;15.90;93.80
52295;DHT22;38243;53.212;6.574;2023-12-14T01:12:18;15.90;93.80
52295;DHT22;38243;53.212;6.574;2023-12-14T01:14:43;15.90;93.70
52295;DHT22;38243;53.212;6.574;2023-12-14T01:17:09;15.90;93.70
52295;DHT22;38243;53.212;6.574;2023-12-14T01:19:35;15.90;93.70
52295;DHT22;38243;53.212;6.574;2023-12-14T01:22:00;15.90;93.70
52295;DHT22;38243;53.212;6.574;2023-12-14T01:24:26;15.90;93.70
52295;DHT22;38243;53.212;6.574;2023-12-14T01:26:51;15.90;93.60
52295;DHT22;38243;53.212;6.574;2023-12-14T01:29:17;15.90;93.60
52295;DHT22;38243;53.212;6.574;2023-12-14T01:31:42;15.90;93.60
52295;DHT22;38243;53.212;6.574;2023-12-14T01:34:08;15.90;93.60
52295;DHT22;38243;53.212;6.574;2023-12-14T01:36:35;15.90;93.60
52295;DHT22;38243;53.212;6.574;2023-12-14T01:39:01;15.90;93.50
52295;DHT22;38243;53.212;6.574;2023-12-14T01:41:27;15.90;93.50
52295;DHT22;38243;53.212;6.574;2023-12-14T01:43:52;15.90;93.50
52295;DHT22;38243;53.212;6.574;2023-12-14T01:46:18;15.90;93.50
52295;DHT22;38243;53.212;6.574;2023-12-14T01:48:43;15.90;93.50
52295;DHT22;38243;53.212;6.574;2023-12-14T01:51:09;15.90;93.50
52295;DHT22;38243;53.212;6.574;2023-12-14T01:53:34;15.90;93.40
52295;DHT22;38243;53.212;6.574;2023-12-14T01:56:00;15.90;93.40
52295;DHT22;38243;53.212;6.574;2023-12-14T01:58:26;15.90;93.40
52295;DHT22;38243;53.212;6.574;2023-12-14T02:01:14;15.90;93.30
52295;DHT22;38243;53.212;6.574;2023-12-14T02:03:48;15.90;93.30
52295;DHT22;38243;53.212;6.574;2023-12-14T02:06:15;15.80;93.20
52295;DHT22;38243;53.212;6.574;2023-12-14T02:08:40;15.90;93.30
52295;DHT22;38243;53.212;6.574;2023-12-14T02:11:06;15.90;93.30
52295;DHT22;38243;53.212;6.574;2023-12-14T02:13:32;15.90;93.30
52295;DHT22;38243;53.212;6.574;2023-12-14T02:15:57;15.90;93.20
52295;DHT22;38243;53.212;6.574;2023-12-14T02:18:23;15.90;93.30
52295;DHT22;38243;53.212;6.574;2023-12-14T02:20:49;15.90;93.20
52295;DHT22;38243;53.212;6.574;2023-12-14T02:23:14;15.90;93.20
52295;DHT22;38243;53.212;6.574;2023-12-14T02:25:40;15.90;93.10
52295;DHT22;38243;53.212;6.574;2023-12-14T02:28:05;15.90;93.20
52295;DHT22;38243;53.212;6.574;2023-12-14T02:30:31;15.90;93.10
52295;DHT22;38243;53.212;6.574;2023-12-14T02:32:57;15.90;93.10
52295;DHT22;38243;53.212;6.574;2023-12-14T02:35:22;15.90;93.10
52295;DHT22;38243;53.212;6.574;2023-12-14T02:37:48;15.90;93.10
52295;DHT22;38243;53.212;6.574;2023-12-14T02:40:13;15.90;93.10
52295;DHT22;38243;53.212;6.574;2023-12-14T02:42:39;15.90;93.10
52295;DHT22;38243;53.212;6.574;2023-12-14T02:45:05;15.90;93.00
52295;DHT22;38243;53.212;6.574;2023-12-14T02:47:31;15.90;93.00
52295;DHT22;38243;53.212;6.574;2023-12-14T02:49:56;15.90;93.00
52295;DHT22;38243;53.212;6.574;2023-12-14T02:52:22;15.90;93.00
52295;DHT22;38243;53.212;6.574;2023-12-14T02:54:47;15.90;93.00
52295;DHT22;38243;53.212;6.574;2023-12-14T02:57:13;15.90;93.00
52295;DHT22;38243;53.212;6.574;2023-12-14T02:59:39;15.80;92.90
52295;DHT22;38243;53.212;6.574;2023-12-14T03:02:05;15.80;92.90
52295;DHT22;38243;53.212;6.574;2023-12-14T03:04:31;15.90;93.00
52295;DHT22;38243;53.212;6.574;2023-12-14T03:06:56;15.90;92.90
52295;DHT22;38243;53.212;6.574;2023-12-14T03:09:22;15.80;92.90
52295;DHT22;38243;53.212;6.574;2023-12-14T03:11:48;15.90;92.90
52295;DHT22;38243;53.212;6.574;2023-12-14T03:14:14;15.90;92.90
52295;DHT22;38243;53.212;6.574;2023-12-14T03:16:39;15.80;92.80
52295;DHT22;38243;53.212;6.574;2023-12-14T03:19:05;15.90;92.80
52295;DHT22;38243;53.212;6.574;2023-12-14T03:21:31;15.90;92.80
52295;DHT22;38243;53.212;6.574;2023-12-14T03:23:56;15.80;92.70
52295;DHT22;38243;53.212;6.574;2023-12-14T03:26:22;15.80;92.70
52295;DHT22;38243;53.212;6.574;2023-12-14T03:28:47;15.80;92.70
52295;DHT22;38243;53.212;6.574;2023-12-14T03:31:13;15.90;92.70
52295;DHT22;38243;53.212;6.574;2023-12-14T03:33:39;15.80;92.70
52295;DHT22;38243;53.212;6.574;2023-12-14T03:36:05;15.80;92.60
52295;DHT22;38243;53.212;6.574;2023-12-14T03:38:31;15.80;92.70
52295;DHT22;38243;53.212;6.574;2023-12-14T03:40:57;15.90;92.70
52295;DHT22;38243;53.212;6.574;2023-12-14T03:43:22;15.80;92.70
52295;DHT22;38243;53.212;6.574;2023-12-14T03:45:48;15.80;92.60
52295;DHT22;38243;53.212;6.574;2023-12-14T03:48:13;15.80;92.60
52295;DHT22;38243;53.212;6.574;2023-12-14T03:50:39;15.80;92.60
52295;DHT22;38243;53.212;6.574;2023-12-14T03:53:04;15.90;92.60
52295;DHT22;38243;53.212;6.574;2023-12-14T03:55:30;15.80;92.60
52295;DHT22;38243;53.212;6.574;2023-12-14T03:57:55;15.80;92.50
52295;DHT22;38243;53.212;6.574;2023-12-14T04:00:21;15.90;92.60
52295;DHT22;38243;53.212;6.574;2023-12-14T04:02:47;15.80;92.50
52295;DHT22;38243;53.212;6.574;2023-12-14T04:05:12;15.90;92.50
52295;DHT22;38243;53.212;6.574;2023-12-14T04:07:38;15.80;92.60
52295;DHT22;38243;53.212;6.574;2023-12-14T04:10:06;15.80;92.50
52295;DHT22;38243;53.212;6.574;2023-12-14T04:12:32;15.80;92.50
52295;DHT22;38243;53.212;6.574;2023-12-14T04:14:57;15.80;92.70
52295;DHT22;38243;53.212;6.574;2023-12-14T04:17:23;15.50;92.40
52295;DHT22;38243;53.212;6.574;2023-12-14T04:19:49;15.80;92.40
52295;DHT22;38243;53.212;6.574;2023-12-14T04:22:15;15.80;92.40
52295;DHT22;38243;53.212;6.574;2023-12-14T04:24:41;15.80;92.40
52295;DHT22;38243;53.212;6.574;2023-12-14T04:27:06;15.80;92.40
52295;DHT22;38243;53.212;6.574;2023-12-14T04:29:32;15.80;92.30
52295;DHT22;38243;53.212;6.574;2023-12-14T04:31:57;15.80;92.30
52295;DHT22;38243;53.212;6.574;2023-12-14T04:34:23;15.80;92.30
52295;DHT22;38243;53.212;6.574;2023-12-14T04:36:49;15.80;92.30
52295;DHT22;38243;53.212;6.574;2023-12-14T04:39:15;15.80;92.20
52295;DHT22;38243;53.212;6.574;2023-12-14T04:41:42;15.80;92.30
52295;DHT22;38243;53.212;6.574;2023-12-14T04:44:07;15.80;92.30
52295;DHT22;38243;53.212;6.574;2023-12-14T04:46:35;15.80;92.20
52295;DHT22;38243;53.212;6.574;2023-12-14T04:49:01;15.80;92.20
52295;DHT22;38243;53.212;6.574;2023-12-14T04:51:26;15.80;92.20
52295;DHT22;38243;53.212;6.574;2023-12-14T04:53:52;15.80;92.20
52295;DHT22;38243;53.212;6.574;2023-12-14T04:56:18;15.80;92.20
52295;DHT22;38243;53.212;6.574;2023-12-14T04:58:43;15.80;92.20
52295;DHT22;38243;53.212;6.574;2023-12-14T05:01:09;15.80;92.20
52295;DHT22;38243;53.212;6.574;2023-12-14T05:03:34;14.10;91.80
52295;DHT22;38243;53.212;6.574;2023-12-14T05:06:00;15.80;92.20
52295;DHT22;38243;53.212;6.574;2023-12-14T05:08:26;15.80;92.10
52295;DHT22;38243;53.212;6.574;2023-12-14T05:10:52;15.80;92.10
52295;DHT22;38243;53.212;6.574;2023-12-14T05:13:20;15.80;92.30
52295;DHT22;38243;53.212;6.574;2023-12-14T05:15:46;15.80;92.20
52295;DHT22;38243;53.212;6.574;2023-12-14T05:18:11;15.80;92.10
52295;DHT22;38243;53.212;6.574;2023-12-14T05:20:37;15.80;92.20
52295;DHT22;38243;53.212;6.574;2023-12-14T05:23:03;15.80;92.10
52295;DHT22;38243;53.212;6.574;2023-12-14T05:25:28;15.80;92.10
52295;DHT22;38243;53.212;6.574;2023-12-14T05:27:54;15.80;92.10
52295;DHT22;38243;53.212;6.574;2023-12-14T05:30:20;15.80;92.10
52295;DHT22;38243;53.212;6.574;2023-12-14T05:32:45;15.80;92.10
52295;DHT22;38243;53.212;6.574;2023-12-14T05:35:12;15.80;92.10
52295;DHT22;38243;53.212;6.574;2023-12-14T05:37:40;15.80;92.10
52295;DHT22;38243;53.212;6.574;2023-12-14T05:40:07;15.80;92.00
52295;DHT22;38243;53.212;6.574;2023-12-14T05:42:33;14.90;91.80
52295;DHT22;38243;53.212;6.574;2023-12-14T05:44:59;15.80;92.30
52295;DHT22;38243;53.212;6.574;2023-12-14T05:47:26;15.80;92.00
52295;DHT22;38243;53.212;6.574;2023-12-14T05:49:51;15.80;92.00
52295;DHT22;38243;53.212;6.574;2023-12-14T05:52:17;15.80;92.00
52295;DHT22;38243;53.212;6.574;2023-12-14T05:54:43;15.80;92.00
52295;DHT22;38243;53.212;6.574;2023-12-14T05:57:08;15.80;92.00
52295;DHT22;38243;53.212;6.574;2023-12-14T05:59:34;15.80;92.00
52295;DHT22;38243;53.212;6.574;2023-12-14T06:02:00;15.80;92.00
52295;DHT22;38243;53.212;6.574;2023-12-14T06:04:26;15.80;92.10
52295;DHT22;38243;53.212;6.574;2023-12-14T06:06:52;15.80;92.00
52295;DHT22;38243;53.212;6.574;2023-12-14T06:09:18;15.80;92.00
52295;DHT22;38243;53.212;6.574;2023-12-14T06:11:47;15.80;92.20
52295;DHT22;38243;53.212;6.574;2023-12-14T06:14:16;15.80;92.10
52295;DHT22;38243;53.212;6.574;2023-12-14T06:16:41;15.80;92.10
52295;DHT22;38243;53.212;6.574;2023-12-14T06:19:07;15.80;92.10
52295;DHT22;38243;53.212;6.574;2023-12-14T06:21:32;15.80;92.10
52295;DHT22;38243;53.212;6.574;2023-12-14T06:23:59;15.80;92.10
52295;DHT22;38243;53.212;6.574;2023-12-14T06:26:25;15.80;92.10
52295;DHT22;38243;53.212;6.574;2023-12-14T06:28:53;15.80;92.20
52295;DHT22;38243;53.212;6.574;2023-12-14T06:31:18;15.80;92.50
52295;DHT22;38243;53.212;6.574;2023-12-14T06:33:49;14.60;92.40
52295;DHT22;38243;53.212;6.574;2023-12-14T06:36:15;15.90;92.90
52295;DHT22;38243;53.212;6.574;2023-12-14T06:38:43;15.80;93.00
52295;DHT22;38243;53.212;6.574;2023-12-14T06:41:08;15.80;93.10
52295;DHT22;38243;53.212;6.574;2023-12-14T06:43:43;15.80;93.20
52295;DHT22;38243;53.212;6.574;2023-12-14T06:46:08;15.80;93.20
52295;DHT22;38243;53.212;6.574;2023-12-14T06:48:34;15.80;93.30
52295;DHT22;38243;53.212;6.574;2023-12-14T06:50:59;15.80;93.10
52295;DHT22;38243;53.212;6.574;2023-12-14T06:53:25;15.80;93.00
52295;DHT22;38243;53.212;6.574;2023-12-14T06:55:51;15.80;92.90
52295;DHT22;38243;53.212;6.574;2023-12-14T06:58:17;15.80;92.80
52295;DHT22;38243;53.212;6.574;2023-12-14T07:00:42;15.80;92.80
52295;DHT22;38243;53.212;6.574;2023-12-14T07:03:08;15.80;92.80
52295;DHT22;38243;53.212;6.574;2023-12-14T07:05:34;15.80;92.80
52295;DHT22;38243;53.212;6.574;2023-12-14T07:07:59;15.80;92.80
52295;DHT22;38243;53.212;6.574;2023-12-14T07:10:25;15.80;92.80
52295;DHT22;38243;53.212;6.574;2023-12-14T07:12:50;15.80;92.80
52295;DHT22;38243;53.212;6.574;2023-12-14T07:15:16;15.80;92.80
52295;DHT22;38243;53.212;6.574;2023-12-14T07:17:41;15.80;92.80
52295;DHT22;38243;53.212;6.574;2023-12-14T07:20:07;15.80;92.80
52295;DHT22;38243;53.212;6.574;2023-12-14T07:22:33;15.80;92.80
52295;DHT22;38243;53.212;6.574;2023-12-14T07:24:58;15.80;92.80
52295;DHT22;38243;53.212;6.574;2023-12-14T07:27:24;15.80;92.70
52295;DHT22;38243;53.212;6.574;2023-12-14T07:29:50;15.80;92.80
52295;DHT22;38243;53.212;6.574;2023-12-14T07:32:15;15.80;92.70
52295;DHT22;38243;53.212;6.574;2023-12-14T07:34:41;15.80;92.70
52295;DHT22;38243;53.212;6.574;2023-12-14T07:37:06;15.80;92.70
52295;DHT22;38243;53.212;6.574;2023-12-14T07:39:32;15.80;92.80
52295;DHT22;38243;53.212;6.574;2023-12-14T07:41:58;15.80;92.70
52295;DHT22;38243;53.212;6.574;2023-12-14T07:44:23;15.80;92.60
52295;DHT22;38243;53.212;6.574;2023-12-14T07:46:50;15.80;92.70
52295;DHT22;38243;53.212;6.574;2023-12-14T07:49:16;15.80;93.00
52295;DHT22;38243;53.212;6.574;2023-12-14T07:51:46;15.80;92.80
52295;DHT22;38243;53.212;6.574;2023-12-14T07:54:11;15.80;92.90
52295;DHT22;38243;53.212;6.574;2023-12-14T07:56:37;15.80;92.90
52295;DHT22;38243;53.212;6.574;2023-12-14T07:59:03;15.80;93.00
52295;DHT22;38243;53.212;6.574;2023-12-14T08:01:32;15.80;93.00
52295;DHT22;38243;53.212;6.574;2023-12-14T08:03:57;15.80;93.00
52295;DHT22;38243;53.212;6.574;2023-12-14T08:06:23;15.80;93.00
52295;DHT22;38243;53.212;6.574;2023-12-14T08:08:48;15.80;93.00
52295;DHT22;38243;53.212;6.574;2023-12-14T08:11:14;15.80;93.00
52295;DHT22;38243;53.212;6.574;2023-12-14T08:13:40;15.80;92.90
52295;DHT22;38243;53.212;6.574;2023-12-14T08:16:06;15.80;92.90
52295;DHT22;38243;53.212;6.574;2023-12-14T08:18:32;15.80;93.00
52295;DHT22;38243;53.212;6.574;2023-12-14T08:20:58;15.80;93.00
52295;DHT22;38243;53.212;6.574;2023-12-14T08:23:23;15.80;93.10
52295;DHT22;38243;53.212;6.574;2023-12-14T08:25:55;15.80;93.10
52295;DHT22;38243;53.212;6.574;2023-12-14T08:28:22;15.80;93.10
52295;DHT22;38243;53.212;6.574;2023-12-14T08:30:48;15.90;93.20
52295;DHT22;38243;53.212;6.574;2023-12-14T08:33:14;15.80;93.20
52295;DHT22;38243;53.212;6.574;2023-12-14T08:35:39;15.80;93.20
52295;DHT22;38243;53.212;6.574;2023-12-14T08:38:05;15.80;93.30
52295;DHT22;38243;53.212;6.574;2023-12-14T08:40:30;15.80;93.30
52295;DHT22;38243;53.212;6.574;2023-12-14T08:42:56;15.80;93.40
52295;DHT22;38243;53.212;6.574;2023-12-14T08:45:22;15.80;93.30
52295;DHT22;38243;53.212;6.574;2023-12-14T08:47:48;15.80;93.30
52295;DHT22;38243;53.212;6.574;2023-12-14T08:50:13;15.90;93.20
52295;DHT22;38243;53.212;6.574;2023-12-14T08:52:39;15.90;93.20
52295;DHT22;38243;53.212;6.574;2023-12-14T08:55:05;15.90;93.20
52295;DHT22;38243;53.212;6.574;2023-12-14T08:57:31;15.90;93.20
52295;DHT22;38243;53.212;6.574;2023-12-14T08:59:56;15.90;93.10
52295;DHT22;38243;53.212;6.574;2023-12-14T09:02:22;14.20;92.70
52295;DHT22;38243;53.212;6.574;2023-12-14T09:04:47;15.90;93.00
52295;DHT22;38243;53.212;6.574;2023-12-14T09:07:13;15.90;93.00
52295;DHT22;38243;53.212;6.574;2023-12-14T09:09:39;15.90;92.90
52295;DHT22;38243;53.212;6.574;2023-12-14T09:12:04;15.90;92.90
52295;DHT22;38243;53.212;6.574;2023-12-14T09:14:30;15.90;92.80
52295;DHT22;38243;53.212;6.574;2023-12-14T09:16:56;16.00;92.80
52295;DHT22;38243;53.212;6.574;2023-12-14T09:19:22;16.00;92.80
52295;DHT22;38243;53.212;6.574;2023-12-14T09:21:48;16.00;92.80
52295;DHT22;38243;53.212;6.574;2023-12-14T09:24:13;16.00;92.70
52295;DHT22;38243;53.212;6.574;2023-12-14T09:26:39;16.00;92.70
52295;DHT22;38243;53.212;6.574;2023-12-14T09:29:05;16.00;92.60
52295;DHT22;38243;53.212;6.574;2023-12-14T09:31:30;15.80;91.30
52295;DHT22;38243;53.212;6.574;2023-12-14T09:33:56;15.80;92.20
52295;DHT22;38243;53.212;6.574;2023-12-14T09:36:21;15.70;92.40
52295;DHT22;38243;53.212;6.574;2023-12-14T09:38:47;15.70;92.50
52295;DHT22;38243;53.212;6.574;2023-12-14T09:41:13;15.60;92.60
52295;DHT22;38243;53.212;6.574;2023-12-14T09:43:38;15.60;92.80
52295;DHT22;38243;53.212;6.574;2023-12-14T09:46:04;15.60;93.10
52295;DHT22;38243;53.212;6.574;2023-12-14T09:48:29;15.50;93.80
52295;DHT22;38243;53.212;6.574;2023-12-14T09:50:56;15.50;95.50
52295;DHT22;38243;53.212;6.574;2023-12-14T09:53:22;15.50;96.40
52295;DHT22;38243;53.212;6.574;2023-12-14T09:55:48;15.50;96.90
52295;DHT22;38243;53.212;6.574;2023-12-14T09:58:13;15.40;97.20
52295;DHT22;38243;53.212;6.574;2023-12-14T10:00:39;15.40;97.20
52295;DHT22;38243;53.212;6.574;2023-12-14T10:05:43;15.30;96.70
52295;DHT22;38243;53.212;6.574;2023-12-14T10:08:09;15.30;96.00
52295;DHT22;38243;53.212;6.574;2023-12-14T10:10:34;15.30;95.80
52295;DHT22;38243;53.212;6.574;2023-12-14T10:13:00;15.30;95.60
52295;DHT22;38243;53.212;6.574;2023-12-14T10:15:26;15.20;95.60
52295;DHT22;38243;53.212;6.574;2023-12-14T10:17:52;15.30;95.40
52295;DHT22;38243;53.212;6.574;2023-12-14T10:20:22;15.30;95.60
52295;DHT22;38243;53.212;6.574;2023-12-14T10:22:52;15.30;95.50
52295;DHT22;38243;53.212;6.574;2023-12-14T10:25:18;15.40;95.20
52295;DHT22;38243;53.212;6.574;2023-12-14T10:27:47;15.40;94.60
52295;DHT22;38243;53.212;6.574;2023-12-14T10:30:14;15.40;94.10
52295;DHT22;38243;53.212;6.574;2023-12-14T10:32:40;15.50;93.80
52295;DHT22;38243;53.212;6.574;2023-12-14T10:35:07;15.50;93.40
52295;DHT22;38243;53.212;6.574;2023-12-14T10:37:32;15.50;93.00
52295;DHT22;38243;53.212;6.574;2023-12-14T10:40:03;15.50;92.70
52295;DHT22;38243;53.212;6.574;2023-12-14T10:42:30;15.20;92.40
52295;DHT22;38243;53.212;6.574;2023-12-14T10:44:57;15.50;92.20
52295;DHT22;38243;53.212;6.574;2023-12-14T10:47:24;15.50;92.00
52295;DHT22;38243;53.212;6.574;2023-12-14T10:49:50;15.50;91.90
52295;DHT22;38243;53.212;6.574;2023-12-14T10:52:16;15.50;91.90
52295;DHT22;38243;53.212;6.574;2023-12-14T10:54:42;15.50;91.70
52295;DHT22;38243;53.212;6.574;2023-12-14T10:57:09;15.50;91.60
52295;DHT22;38243;53.212;6.574;2023-12-14T10:59:35;15.50;91.50
52295;DHT22;38243;53.212;6.574;2023-12-14T11:02:00;15.50;91.30
52295;DHT22;38243;53.212;6.574;2023-12-14T11:04:32;15.50;91.30
52295;DHT22;38243;53.212;6.574;2023-12-14T11:07:17;15.60;91.10
52295;DHT22;38243;53.212;6.574;2023-12-14T11:09:44;15.50;91.10
52295;DHT22;38243;53.212;6.574;2023-12-14T11:12:09;15.50;91.20
52295;DHT22;38243;53.212;6.574;2023-12-14T11:14:37;15.50;91.20
52295;DHT22;38243;53.212;6.574;2023-12-14T11:17:05;15.50;91.30
52295;DHT22;38243;53.212;6.574;2023-12-14T11:19:31;15.50;91.30
52295;DHT22;38243;53.212;6.574;2023-12-14T11:22:08;15.60;91.40
52295;DHT22;38243;53.212;6.574;2023-12-14T11:24:34;15.50;91.40
52295;DHT22;38243;53.212;6.574;2023-12-14T11:27:04;15.50;91.60
52295;DHT22;38243;53.212;6.574;2023-12-14T11:29:29;15.50;91.40
52295;DHT22;38243;53.212;6.574;2023-12-14T11:31:55;15.50;91.60
52295;DHT22;38243;53.212;6.574;2023-12-14T11:34:23;15.50;91.60
52295;DHT22;38243;53.212;6.574;2023-12-14T11:36:49;15.50;91.40
52295;DHT22;38243;53.212;6.574;2023-12-14T11:39:15;15.50;91.00
52295;DHT22;38243;53.212;6.574;2023-12-14T11:41:40;15.50;91.00
52295;DHT22;38243;53.212;6.574;2023-12-14T11:44:06;15.50;91.20
52295;DHT22;38243;53.212;6.574;2023-12-14T11:46:32;15.50;91.30
52295;DHT22;38243;53.212;6.574;2023-12-14T11:48:58;15.40;91.20
52295;DHT22;38243;53.212;6.574;2023-12-14T11:51:24;15.40;91.00
52295;DHT22;38243;53.212;6.574;2023-12-14T11:53:51;15.40;91.10
52295;DHT22;38243;53.212;6.574;2023-12-14T11:56:20;15.30;91.10
52295;DHT22;38243;53.212;6.574;2023-12-14T11:58:48;15.30;91.00
52295;DHT22;38243;53.212;6.574;2023-12-14T12:01:17;15.30;90.90
52295;DHT22;38243;53.212;6.574;2023-12-14T12:03:43;15.20;90.90
52295;DHT22;38243;53.212;6.574;2023-12-14T12:06:19;15.20;91.00
52295;DHT22;38243;53.212;6.574;2023-12-14T12:08:45;15.20;91.10
52295;DHT22;38243;53.212;6.574;2023-12-14T12:11:10;15.20;91.10
52295;DHT22;38243;53.212;6.574;2023-12-14T12:13:36;15.10;91.20
52295;DHT22;38243;53.212;6.574;2023-12-14T12:16:01;16.00;91.50
52295;DHT22;38243;53.212;6.574;2023-12-14T12:18:27;15.10;91.20
52295;DHT22;38243;53.212;6.574;2023-12-14T12:20:53;15.10;91.40
52295;DHT22;38243;53.212;6.574;2023-12-14T12:23:18;15.10;91.40
52295;DHT22;38243;53.212;6.574;2023-12-14T12:25:44;15.20;91.30
52295;DHT22;38243;53.212;6.574;2023-12-14T12:28:09;15.10;91.40
52295;DHT22;38243;53.212;6.574;2023-12-14T12:30:35;15.20;91.40
52295;DHT22;38243;53.212;6.574;2023-12-14T12:33:01;15.10;91.20
52295;DHT22;38243;53.212;6.574;2023-12-14T12:35:26;15.10;91.20
52295;DHT22;38243;53.212;6.574;2023-12-14T12:37:55;15.10;91.40
52295;DHT22;38243;53.212;6.574;2023-12-14T12:40:21;15.10;91.40
52295;DHT22;38243;53.212;6.574;2023-12-14T12:42:47;15.10;91.40
52295;DHT22;38243;53.212;6.574;2023-12-14T12:45:16;15.10;91.40
52295;DHT22;38243;53.212;6.574;2023-12-14T12:47:47;15.20;91.50
52295;DHT22;38243;53.212;6.574;2023-12-14T12:50:13;15.20;91.40
52295;DHT22;38243;53.212;6.574;2023-12-14T12:52:39;15.20;91.30
52295;DHT22;38243;53.212;6.574;2023-12-14T12:55:05;15.20;91.50
52295;DHT22;38243;53.212;6.574;2023-12-14T12:57:31;15.20;91.20
52295;DHT22;38243;53.212;6.574;2023-12-14T12:59:57;15.20;91.00
52295;DHT22;38243;53.212;6.574;2023-12-14T13:02:22;15.20;91.00
52295;DHT22;38243;53.212;6.574;2023-12-14T13:04:48;15.30;90.90
52295;DHT22;38243;53.212;6.574;2023-12-14T13:07:15;15.20;91.00
52295;DHT22;38243;53.212;6.574;2023-12-14T13:09:41;15.20;91.10
52295;DHT22;38243;53.212;6.574;2023-12-14T13:12:07;15.20;91.10
52295;DHT22;38243;53.212;6.574;2023-12-14T13:14:33;15.20;91.30
52295;DHT22;38243;53.212;6.574;2023-12-14T13:16:59;15.30;91.40
52295;DHT22;38243;53.212;6.574;2023-12-14T13:19:28;15.30;91.30
52295;DHT22;38243;53.212;6.574;2023-12-14T13:21:54;15.30;91.40
52295;DHT22;38243;53.212;6.574;2023-12-14T13:24:23;15.30;91.40
52295;DHT22;38243;53.212;6.574;2023-12-14T13:26:49;15.30;91.50
52295;DHT22;38243;53.212;6.574;2023-12-14T13:29:15;15.30;91.50
52295;DHT22;38243;53.212;6.574;2023-12-14T13:31:40;15.40;91.50
52295;DHT22;38243;53.212;6.574;2023-12-14T13:34:06;15.30;91.50
52295;DHT22;38243;53.212;6.574;2023-12-14T13:36:32;15.30;91.50
52295;DHT22;38243;53.212;6.574;2023-12-14T13:38:57;15.30;91.50
52295;DHT22;38243;53.212;6.574;2023-12-14T13:41:24;15.40;91.50
52295;DHT22;38243;53.212;6.574;2023-12-14T13:43:50;15.40;91.50
52295;DHT22;38243;53.212;6.574;2023-12-14T13:46:17;15.40;91.60
52295;DHT22;38243;53.212;6.574;2023-12-14T13:48:43;15.40;91.70
52295;DHT22;38243;53.212;6.574;2023-12-14T13:51:09;15.50;92.40
52295;DHT22;38243;53.212;6.574;2023-12-14T13:53:35;15.50;92.60
52295;DHT22;38243;53.212;6.574;2023-12-14T13:56:00;15.60;92.50
52295;DHT22;38243;53.212;6.574;2023-12-14T13:58:26;15.60;92.40
52295;DHT22;38243;53.212;6.574;2023-12-14T14:00:52;15.60;92.30
52295;DHT22;38243;53.212;6.574;2023-12-14T14:03:18;15.60;92.10
52295;DHT22;38243;53.212;6.574;2023-12-14T14:05:43;15.50;91.90
52295;DHT22;38243;53.212;6.574;2023-12-14T14:08:10;15.50;91.80
52295;DHT22;38243;53.212;6.574;2023-12-14T14:10:36;15.50;91.70
52295;DHT22;38243;53.212;6.574;2023-12-14T14:13:02;15.50;91.70
52295;DHT22;38243;53.212;6.574;2023-12-14T14:15:28;15.50;91.80
52295;DHT22;38243;53.212;6.574;2023-12-14T14:17:54;15.40;91.90
52295;DHT22;38243;53.212;6.574;2023-12-14T14:20:20;15.40;91.90
52295;DHT22;38243;53.212;6.574;2023-12-14T14:22:47;15.40;91.90
52295;DHT22;38243;53.212;6.574;2023-12-14T14:25:13;15.40;91.90
52295;DHT22;38243;53.212;6.574;2023-12-14T14:27:39;15.40;91.90
52295;DHT22;38243;53.212;6.574;2023-12-14T14:30:06;14.80;91.70
52295;DHT22;38243;53.212;6.574;2023-12-14T14:32:32;15.20;91.60
52295;DHT22;38243;53.212;6.574;2023-12-14T14:35:00;15.40;91.40
52295;DHT22;38243;53.212;6.574;2023-12-14T14:37:26;15.60;91.30
52295;DHT22;38243;53.212;6.574;2023-12-14T14:39:52;15.40;91.10
52295;DHT22;38243;53.212;6.574;2023-12-14T14:42:18;15.40;91.10
52295;DHT22;38243;53.212;6.574;2023-12-14T14:44:43;15.40;91.30
52295;DHT22;38243;53.212;6.574;2023-12-14T14:47:09;15.40;91.30
52295;DHT22;38243;53.212;6.574;2023-12-14T14:49:35;15.40;91.30
52295;DHT22;38243;53.212;6.574;2023-12-14T14:52:01;15.40;91.30
52295;DHT22;38243;53.212;6.574;2023-12-14T14:54:27;15.40;91.20
52295;DHT22;38243;53.212;6.574;2023-12-14T14:56:52;15.40;91.30
52295;DHT22;38243;53.212;6.574;2023-12-14T14:59:18;15.40;91.40
52295;DHT22;38243;53.212;6.574;2023-12-14T15:01:44;15.40;91.40
52295;DHT22;38243;53.212;6.574;2023-12-14T15:04:11;15.40;91.40
52295;DHT22;38243;53.212;6.574;2023-12-14T15:06:37;15.40;91.50
52295;DHT22;38243;53.212;6.574;2023-12-14T15:09:05;15.30;91.40
52295;DHT22;38243;53.212;6.574;2023-12-14T15:11:30;15.30;91.50
52295;DHT22;38243;53.212;6.574;2023-12-14T15:13:56;15.30;91.50
52295;DHT22;38243;53.212;6.574;2023-12-14T15:16:22;15.30;91.60
52295;DHT22;38243;53.212;6.574;2023-12-14T15:18:52;15.30;91.70
52295;DHT22;38243;53.212;6.574;2023-12-14T15:21:18;15.20;91.70
52295;DHT22;38243;53.212;6.574;2023-12-14T15:23:44;15.20;91.70
52295;DHT22;38243;53.212;6.574;2023-12-14T15:26:12;15.30;91.70